Aeroporto :
LOGIN :

Iscrizione | Disclaimer

   EN    FR    IT 

 










Sommario :    VFR   VFR Marginale   IFR   IFR Intensivo   IFR Molto Intensivo
Visibilità : 
Base nubi : 
>= 8 km
>= 3000ft
5 / 8 km
1000 / 3000 ft
1500m / 5 km
500 / 1000 ft
800 / 1500m
200 / 500 ft
< 800m
< 200 ft
Simboli :   Temporali  Nebbia  Neve Forte  Precipitazioni Forti  Vento > 20 kt
SIGMETs :   Varie  Temporali  Ghiacco  Turbolenza  Onda orograficha  Ceneri Vulcaniche






- Altitudine del aeroporto : 184 ft
- Codice IATA : BRU


EBBR - Bruxelles

ULTIMO METAR :
  • 260850Z 18003KT 9999 BKN048 08/05 Q1021 NOSIG

METARs OBSOLETI :
  • 260820Z 19005KT 9999 BKN048 08/05 Q1021 NOSIG
  • 260750Z 19005KT 9999 BKN046 08/05 Q1021 NOSIG
  • 260720Z 17004KT 9999 SCT038 BKN046 07/05 Q1020 NOSIG
  • 260650Z 18005KT 9999 BKN046 07/05 Q1020 NOSIG
  • 260620Z 19006KT 9999 SCT036 BKN048 08/05 Q1020 NOSIG

TAF TAF EBBR
Valido dal 26 a 06 ore il 27 a 12 ore UTC


260510Z 2606/2712 20004KT 9999 SCT040
PROB40
TEMPO 2618/2706 BKN012
BECMG 2620/2623 3000 BR
PROB30
TEMPO 2702/2712 0600 BCFG



MetMap, La meteo Aeronautica in un colpo d'occhio ! - Copyright ORBIFLY Dicembre 2007 - Disclaimer

ORBIFLY MET'MAP TEAM :

Programmazione e sviluppo : Alexandra Zaïnal
Concezione : Baudouin d'Aumeries
Aiuto per la programmazione : Marc-Olivier Méhu
Supporto tecnico e logistico : Manuel Goepfert
Aiuto per la traduzione : Arnaldo La Scala

Contatto : metmap@orbifly.com




FONTI E CREDITI :

   NOAA